Time;durP1;ratioP1;P1;durP2;ratioP2;P2;SDS_P1;SDS_P2;PMS_P1;PMS_P2;Temp;Humidity;BMP_temperature;BMP_pressure;BME280_temperature;BME280_humidity;BME280_pressure;Samples;Min_cycle;Max_cycle;Signal;HPM_P1;HPM_P2
2022/08/06 00:00:00;;;;;;;8.70;7.63;;;;;;;;;;5074767;28;20290;-47
2022/08/06 00:02:57;;;;;;;8.55;6.88;;;;;;;;;;5075202;28;20301;-46
2022/08/06 00:05:26;;;;;;;9.02;7.55;;;;;;;;;;5074845;28;20195;-46
2022/08/06 00:08:01;;;;;;;13.23;7.65;;;;;;;;;;5075424;28;20207;-46
2022/08/06 00:10:28;;;;;;;16.13;8.38;;;;;;;;;;5074779;28;20257;-49
2022/08/06 00:13:00;;;;;;;12.40;7.80;;;;;;;;;;5074872;28;20264;-46
2022/08/06 00:15:32;;;;;;;10.07;6.82;;;;;;;;;;5075297;28;20183;-43
2022/08/06 00:18:19;;;;;;;8.15;7.13;;;;;;;;;;5074760;28;20214;-45
2022/08/06 00:20:46;;;;;;;17.60;7.28;;;;;;;;;;5074787;28;20230;-45
2022/08/06 00:23:17;;;;;;;11.55;6.82;;;;;;;;;;5074954;28;20210;-49
2022/08/06 00:25:45;;;;;;;10.05;7.10;;;;;;;;;;5076395;28;20682;-43
2022/08/06 00:28:23;;;;;;;8.90;7.03;;;;;;;;;;5078678;28;20209;-47
2022/08/06 00:30:59;;;;;;;9.18;6.68;;;;;;;;;;5078693;28;20646;-46
2022/08/06 00:33:36;;;;;;;10.27;6.50;;;;;;;;;;5078603;28;20207;-43
2022/08/06 00:36:24;;;;;;;8.68;6.53;;;;;;;;;;5078572;28;20210;-44
2022/08/06 00:38:56;;;;;;;9.63;6.43;;;;;;;;;;5078705;28;20207;-46
2022/08/06 00:41:25;;;;;;;10.45;7.35;;;;;;;;;;5078649;28;20280;-46
2022/08/06 00:44:08;;;;;;;11.95;6.80;;;;;;;;;;5079071;28;20207;-43
2022/08/06 00:46:38;;;;;;;10.43;7.20;;;;;;;;;;5078320;28;20233;-43
2022/08/06 00:49:05;;;;;;;11.10;7.95;;;;;;;;;;5078483;28;20629;-43
2022/08/06 00:51:39;;;;;;;12.25;8.15;;;;;;;;;;5078341;28;20309;-43
2022/08/06 00:54:18;;;;;;;10.77;7.15;;;;;;;;;;5078185;28;20513;-46
2022/08/06 00:56:54;;;;;;;11.05;7.00;;;;;;;;;;5078469;28;20215;-43
2022/08/06 00:59:21;;;;;;;15.00;7.40;;;;;;;;;;5078515;28;20204;-49
2022/08/06 01:01:48;;;;;;;9.05;7.43;;;;;;;;;;5078258;28;20268;-43
2022/08/06 01:04:18;;;;;;;10.15;7.32;;;;;;;;;;5078608;28;20235;-47
2022/08/06 01:06:45;;;;;;;10.60;7.00;;;;;;;;;;5078918;28;20234;-44
2022/08/06 01:09:25;;;;;;;9.95;7.68;;;;;;;;;;5078258;28;20187;-43
2022/08/06 01:11:52;;;;;;;9.30;7.88;;;;;;;;;;5078005;28;20227;-48
2022/08/06 01:14:27;;;;;;;12.05;9.27;;;;;;;;;;5078009;28;20203;-46
2022/08/06 01:17:38;;;;;;;11.57;8.20;;;;;;;;;;5076962;28;20634;-43
2022/08/06 01:20:11;;;;;;;17.02;8.73;;;;;;;;;;5061045;28;20211;-44
2022/08/06 01:23:22;;;;;;;9.23;7.35;;;;;;;;;;5077801;28;20208;-45
2022/08/06 01:26:09;;;;;;;12.40;7.30;;;;;;;;;;5078248;28;20208;-48
2022/08/06 01:28:49;;;;;;;11.20;8.45;;;;;;;;;;5076601;28;20187;-45
2022/08/06 01:31:45;;;;;;;18.33;8.10;;;;;;;;;;5077342;28;20722;-45
2022/08/06 01:34:27;;;;;;;10.98;8.50;;;;;;;;;;5067304;28;20261;-46
2022/08/06 01:37:06;;;;;;;9.80;7.65;;;;;;;;;;5075550;28;20188;-46
2022/08/06 01:39:34;;;;;;;12.55;7.97;;;;;;;;;;5076375;28;20210;-44
2022/08/06 01:42:21;;;;;;;11.05;7.97;;;;;;;;;;5076546;28;20199;-47
2022/08/06 01:45:02;;;;;;;9.20;7.35;;;;;;;;;;5076705;28;20199;-48
2022/08/06 01:47:32;;;;;;;14.63;8.48;;;;;;;;;;5077676;28;20199;-46
2022/08/06 01:50:22;;;;;;;13.38;8.35;;;;;;;;;;5077533;28;20252;-46
2022/08/06 01:52:57;;;;;;;13.82;9.98;;;;;;;;;;5076930;28;20183;-44
2022/08/06 01:55:47;;;;;;;10.23;7.53;;;;;;;;;;5076747;28;20211;-46
2022/08/06 01:58:31;;;;;;;18.88;8.80;;;;;;;;;;5076395;28;20215;-46
2022/08/06 02:01:00;;;;;;;12.55;7.90;;;;;;;;;;5076165;28;20634;-46
2022/08/06 02:03:32;;;;;;;11.23;7.95;;;;;;;;;;5076804;28;20235;-48
2022/08/06 02:06:21;;;;;;;12.75;6.95;;;;;;;;;;5075779;28;20213;-48
2022/08/06 02:08:58;;;;;;;12.07;8.73;;;;;;;;;;5077258;28;20199;-47
2022/08/06 02:12:08;;;;;;;12.00;7.65;;;;;;;;;;5076098;28;20257;-46
2022/08/06 02:14:40;;;;;;;13.27;8.40;;;;;;;;;;5076828;28;20649;-46
2022/08/06 02:17:11;;;;;;;11.73;8.18;;;;;;;;;;5076775;28;20268;-43
2022/08/06 02:19:45;;;;;;;12.40;8.30;;;;;;;;;;5076381;28;20199;-49
2022/08/06 02:22:31;;;;;;;11.75;7.50;;;;;;;;;;5076661;28;20207;-45
2022/08/06 02:25:03;;;;;;;12.68;7.53;;;;;;;;;;5075485;28;20203;-44
2022/08/06 02:27:44;;;;;;;10.85;8.27;;;;;;;;;;5075809;28;20218;-45
2022/08/06 02:30:28;;;;;;;10.43;7.72;;;;;;;;;;5075784;28;20218;-48
2022/08/06 02:33:03;;;;;;;17.50;9.57;;;;;;;;;;5075509;28;20226;-44
2022/08/06 02:35:37;;;;;;;14.20;9.82;;;;;;;;;;5075915;28;20264;-45
2022/08/06 02:38:33;;;;;;;12.57;8.32;;;;;;;;;;5076323;28;20191;-46
2022/08/06 02:41:16;;;;;;;19.05;8.68;;;;;;;;;;5075887;28;20207;-44
2022/08/06 02:43:51;;;;;;;15.77;9.30;;;;;;;;;;5075317;28;20197;-48
2022/08/06 02:46:34;;;;;;;14.50;10.25;;;;;;;;;;5074882;28;20763;-46
2022/08/06 02:49:09;;;;;;;13.00;9.48;;;;;;;;;;5075475;28;20544;-44
2022/08/06 02:51:41;;;;;;;13.10;8.65;;;;;;;;;;5075563;28;20560;-45
2022/08/06 02:54:32;;;;;;;12.45;7.68;;;;;;;;;;5074852;28;20199;-45
2022/08/06 02:57:16;;;;;;;17.27;8.60;;;;;;;;;;5075067;28;20234;-44
2022/08/06 02:59:47;;;;;;;12.25;9.05;;;;;;;;;;5074820;28;20208;-45
2022/08/06 03:02:23;;;;;;;11.50;8.73;;;;;;;;;;5074628;28;20209;-44
2022/08/06 03:04:53;;;;;;;10.15;9.05;;;;;;;;;;5074895;28;20239;-46
2022/08/06 03:07:27;;;;;;;12.32;9.73;;;;;;;;;;5075662;28;20218;-47
2022/08/06 03:09:58;;;;;;;11.90;9.00;;;;;;;;;;5074747;28;20203;-47
2022/08/06 03:12:25;;;;;;;11.77;8.82;;;;;;;;;;5074642;28;20223;-45
2022/08/06 03:14:59;;;;;;;14.55;8.45;;;;;;;;;;5075224;28;20260;-46
2022/08/06 03:17:39;;;;;;;10.20;8.30;;;;;;;;;;5074335;28;20211;-47
2022/08/06 03:20:07;;;;;;;13.32;8.93;;;;;;;;;;5074153;28;20199;-46
2022/08/06 03:22:51;;;;;;;10.48;9.02;;;;;;;;;;5074379;28;20207;-47
2022/08/06 03:25:22;;;;;;;14.88;9.50;;;;;;;;;;5075002;28;20648;-45
2022/08/06 03:27:51;;;;;;;13.82;8.88;;;;;;;;;;5074451;28;20199;-46
2022/08/06 03:30:28;;;;;;;9.63;8.13;;;;;;;;;;5074614;28;20217;-47
2022/08/06 03:33:04;;;;;;;14.50;8.60;;;;;;;;;;5074576;28;20361;-46
2022/08/06 03:35:52;;;;;;;11.60;8.73;;;;;;;;;;5075237;28;20199;-44
2022/08/06 03:38:22;;;;;;;14.80;10.48;;;;;;;;;;5075161;28;20256;-46
2022/08/06 03:40:55;;;;;;;14.80;10.48;;;;;;;;;;5075652;28;20199;-47
2022/08/06 03:43:23;;;;;;;16.95;11.65;;;;;;;;;;5074367;28;20288;-48
2022/08/06 03:45:58;;;;;;;13.05;10.98;;;;;;;;;;5075424;28;20211;-45
2022/08/06 03:48:29;;;;;;;16.17;11.80;;;;;;;;;;5074468;28;20253;-47
2022/08/06 03:51:06;;;;;;;16.25;13.20;;;;;;;;;;5075311;28;20191;-45
2022/08/06 03:53:37;;;;;;;15.43;12.32;;;;;;;;;;5074894;28;20207;-48
2022/08/06 03:56:16;;;;;;;14.57;13.07;;;;;;;;;;5073980;28;20187;-48
2022/08/06 03:58:50;;;;;;;16.10;12.52;;;;;;;;;;5074433;28;20195;-47
2022/08/06 04:01:21;;;;;;;15.75;13.10;;;;;;;;;;5074209;28;20199;-46
2022/08/06 04:03:50;;;;;;;19.42;13.05;;;;;;;;;;5073839;28;20262;-47
2022/08/06 04:06:20;;;;;;;19.52;13.65;;;;;;;;;;5074543;28;20245;-50
2022/08/06 04:08:48;;;;;;;16.20;13.25;;;;;;;;;;5073756;28;20261;-46
2022/08/06 04:11:16;;;;;;;16.38;13.90;;;;;;;;;;5073642;28;20203;-44
2022/08/06 04:14:04;;;;;;;16.70;12.90;;;;;;;;;;5073900;28;20676;-45
2022/08/06 04:16:36;;;;;;;16.55;14.50;;;;;;;;;;5074275;28;20195;-45
2022/08/06 04:19:10;;;;;;;19.42;14.45;;;;;;;;;;5075106;28;20204;-44
2022/08/06 04:21:41;;;;;;;21.08;14.55;;;;;;;;;;5074217;28;20265;-48
2022/08/06 04:24:28;;;;;;;21.58;15.27;;;;;;;;;;5074515;28;20199;-48
2022/08/06 04:27:04;;;;;;;20.77;15.55;;;;;;;;;;5074155;28;20580;-47
2022/08/06 04:29:37;;;;;;;21.90;15.50;;;;;;;;;;5075123;28;20248;-44
2022/08/06 04:32:24;;;;;;;19.67;15.32;;;;;;;;;;5074317;28;20212;-44
2022/08/06 04:34:59;;;;;;;23.02;15.43;;;;;;;;;;5074752;28;20199;-45
2022/08/06 04:37:47;;;;;;;21.17;16.38;;;;;;;;;;5074169;28;20636;-46
2022/08/06 04:40:20;;;;;;;16.92;14.80;;;;;;;;;;5074877;28;20199;-47
2022/08/06 04:43:06;;;;;;;18.75;15.30;;;;;;;;;;5074267;28;20211;-47
2022/08/06 04:45:34;;;;;;;17.77;15.38;;;;;;;;;;5074398;28;20227;-43
2022/08/06 04:48:23;;;;;;;18.17;15.13;;;;;;;;;;5073801;28;20203;-48
2022/08/06 04:50:51;;;;;;;20.40;15.13;;;;;;;;;;5073861;28;20233;-46
2022/08/06 04:53:21;;;;;;;23.58;15.95;;;;;;;;;;5074348;28;20215;-49
2022/08/06 04:56:09;;;;;;;16.80;14.82;;;;;;;;;;5075213;28;20204;-45
2022/08/06 04:58:44;;;;;;;21.98;15.68;;;;;;;;;;5074561;28;20589;-43
2022/08/06 05:01:11;;;;;;;22.23;15.38;;;;;;;;;;5074490;28;20226;-48
2022/08/06 05:03:38;;;;;;;20.85;15.35;;;;;;;;;;5074383;28;20331;-48
2022/08/06 05:06:32;;;;;;;21.67;15.85;;;;;;;;;;5074496;28;20195;-47
2022/08/06 05:09:04;;;;;;;20.48;16.20;;;;;;;;;;5073273;28;20183;-46
2022/08/06 05:12:16;;;;;;;18.33;15.30;;;;;;;;;;5075991;28;20312;-43
2022/08/06 05:15:02;;;;;;;19.10;16.25;;;;;;;;;;5075535;28;20211;-47
2022/08/06 05:17:34;;;;;;;19.80;15.90;;;;;;;;;;5078060;28;20214;-44
2022/08/06 05:20:09;;;;;;;24.05;15.18;;;;;;;;;;5077149;28;20195;-46
2022/08/06 05:23:06;;;;;;;17.17;15.13;;;;;;;;;;5078100;28;20207;-43
2022/08/06 05:25:49;;;;;;;19.83;15.18;;;;;;;;;;5078047;28;20329;-43
2022/08/06 05:28:23;;;;;;;22.00;15.00;;;;;;;;;;5077472;28;20626;-44
2022/08/06 05:30:55;;;;;;;18.60;15.32;;;;;;;;;;5077775;28;20204;-44
2022/08/06 05:33:25;;;;;;;24.02;15.50;;;;;;;;;;5077832;28;20223;-44
2022/08/06 05:35:56;;;;;;;20.77;15.18;;;;;;;;;;5077743;28;20275;-49
2022/08/06 05:38:33;;;;;;;20.30;14.95;;;;;;;;;;5077516;28;20203;-45
2022/08/06 05:41:07;;;;;;;17.63;14.88;;;;;;;;;;5077500;28;20281;-46
2022/08/06 05:43:39;;;;;;;21.98;13.38;;;;;;;;;;5077241;28;20196;-45
2022/08/06 05:46:30;;;;;;;25.27;14.63;;;;;;;;;;5077145;28;20196;-47
2022/08/06 05:49:06;;;;;;;20.60;13.75;;;;;;;;;;5077274;28;20584;-46
2022/08/06 05:52:08;;;;;;;14.65;13.07;;;;;;;;;;5076940;28;20634;-46
2022/08/06 05:54:48;;;;;;;17.15;12.20;;;;;;;;;;5077330;28;20273;-46
2022/08/06 05:57:21;;;;;;;14.20;12.00;;;;;;;;;;5077309;28;20298;-44
2022/08/06 06:00:10;;;;;;;15.30;12.07;;;;;;;;;;5077650;28;20203;-43
2022/08/06 06:02:59;;;;;;;12.32;10.38;;;;;;;;;;5076974;28;20223;-49
2022/08/06 06:05:30;;;;;;;12.68;9.98;;;;;;;;;;5077344;28;20211;-44
2022/08/06 06:08:19;;;;;;;11.90;8.70;;;;;;;;;;5077191;28;20656;-46
2022/08/06 06:11:08;;;;;;;10.43;8.85;;;;;;;;;;5076310;28;20191;-45
2022/08/06 06:13:38;;;;;;;14.52;8.93;;;;;;;;;;5077164;28;20223;-49
2022/08/06 06:16:34;;;;;;;10.68;8.80;;;;;;;;;;5077000;28;20245;-48
2022/08/06 06:19:12;;;;;;;13.05;8.25;;;;;;;;;;5076687;28;20372;-45
2022/08/06 06:22:02;;;;;;;12.77;8.05;;;;;;;;;;5077074;28;20650;-46
2022/08/06 06:24:40;;;;;;;10.65;7.68;;;;;;;;;;5075902;28;20207;-45
2022/08/06 06:27:16;;;;;;;9.00;7.95;;;;;;;;;;5075834;28;20199;-46
2022/08/06 06:30:08;;;;;;;11.35;7.50;;;;;;;;;;5076628;28;20274;-46
2022/08/06 06:32:55;;;;;;;8.38;7.28;;;;;;;;;;5075678;28;20210;-44
2022/08/06 06:35:48;;;;;;;10.32;7.32;;;;;;;;;;5075595;28;20214;-44
2022/08/06 06:38:38;;;;;;;7.63;6.85;;;;;;;;;;5076223;28;20636;-45
2022/08/06 06:41:17;;;;;;;8.10;6.90;;;;;;;;;;5075505;28;20207;-46
2022/08/06 06:44:02;;;;;;;10.60;8.13;;;;;;;;;;5076183;28;20653;-49
2022/08/06 06:46:35;;;;;;;7.90;7.07;;;;;;;;;;5076457;28;20590;-49
2022/08/06 06:49:18;;;;;;;8.07;7.22;;;;;;;;;;5075173;28;20191;-47
2022/08/06 06:52:10;;;;;;;17.23;7.28;;;;;;;;;;5075348;28;20184;-47
2022/08/06 06:55:01;;;;;;;9.63;7.60;;;;;;;;;;5075909;28;20188;-47
2022/08/06 06:57:43;;;;;;;7.88;6.90;;;;;;;;;;5076089;28;20206;-46
2022/08/06 07:00:13;;;;;;;7.75;6.82;;;;;;;;;;5074851;28;20218;-45
2022/08/06 07:03:01;;;;;;;9.10;7.22;;;;;;;;;;5075800;28;20195;-45
2022/08/06 07:05:30;;;;;;;7.10;6.40;;;;;;;;;;5075473;28;20199;-45
2022/08/06 07:08:19;;;;;;;12.77;6.40;;;;;;;;;;5075367;28;20203;-45
2022/08/06 07:10:58;;;;;;;10.82;7.00;;;;;;;;;;5075541;28;20203;-44
2022/08/06 07:13:26;;;;;;;10.40;7.55;;;;;;;;;;5074809;28;20560;-49
2022/08/06 07:16:17;;;;;;;8.10;6.88;;;;;;;;;;5075333;28;20192;-47
2022/08/06 07:19:03;;;;;;;7.72;6.93;;;;;;;;;;5075391;28;20203;-44
2022/08/06 07:21:31;;;;;;;10.07;6.72;;;;;;;;;;5075259;28;20281;-48
2022/08/06 07:23:59;;;;;;;8.80;7.15;;;;;;;;;;5075583;28;20233;-45
2022/08/06 07:26:46;;;;;;;11.68;6.82;;;;;;;;;;5075503;28;20559;-47
2022/08/06 07:29:19;;;;;;;9.07;6.72;;;;;;;;;;5074769;28;20198;-46
2022/08/06 07:32:08;;;;;;;9.88;6.68;;;;;;;;;;5074774;28;20200;-48
2022/08/06 07:34:55;;;;;;;8.27;7.05;;;;;;;;;;5074651;28;20595;-46
2022/08/06 07:37:24;;;;;;;13.07;7.07;;;;;;;;;;5074500;28;20207;-48
2022/08/06 07:39:53;;;;;;;8.65;6.82;;;;;;;;;;5075134;28;20645;-47
2022/08/06 07:42:24;;;;;;;9.77;6.65;;;;;;;;;;5074361;28;20326;-48
2022/08/06 07:45:00;;;;;;;8.70;6.30;;;;;;;;;;5074908;28;20268;-46
2022/08/06 07:47:34;;;;;;;10.38;6.63;;;;;;;;;;5074921;28;20260;-49
2022/08/06 07:50:21;;;;;;;11.32;6.90;;;;;;;;;;5074120;28;20191;-47
2022/08/06 07:52:52;;;;;;;12.13;7.13;;;;;;;;;;5074251;28;20234;-48
2022/08/06 07:55:24;;;;;;;9.07;6.50;;;;;;;;;;5074479;28;20256;-48
2022/08/06 07:58:06;;;;;;;8.25;6.78;;;;;;;;;;5074452;28;20586;-49
2022/08/06 08:00:34;;;;;;;10.70;6.63;;;;;;;;;;5075052;28;20207;-46
2022/08/06 08:06:24;;;;;;;13.40;6.60;;;;;;;;;;5074745;28;20199;-48
2022/08/06 08:08:54;;;;;;;8.38;7.20;;;;;;;;;;5074365;28;20276;-44
2022/08/06 08:11:25;;;;;;;8.25;6.15;;;;;;;;;;5074621;28;20641;-46
2022/08/06 08:14:16;;;;;;;8.85;6.40;;;;;;;;;;5074670;28;20673;-45
2022/08/06 08:16:46;;;;;;;8.23;6.30;;;;;;;;;;5074858;28;20200;-48
2022/08/06 08:19:30;;;;;;;8.10;6.45;;;;;;;;;;5074889;28;20203;-46
2022/08/06 08:22:10;;;;;;;11.80;7.22;;;;;;;;;;5075011;28;20204;-45
2022/08/06 08:24:40;;;;;;;8.52;7.60;;;;;;;;;;5074222;28;20183;-45
2022/08/06 08:27:17;;;;;;;11.07;8.30;;;;;;;;;;5074914;28;20226;-45
2022/08/06 08:30:03;;;;;;;11.02;7.68;;;;;;;;;;5074753;28;20202;-46
2022/08/06 08:32:31;;;;;;;13.32;7.55;;;;;;;;;;5074660;28;20217;-45
2022/08/06 08:34:59;;;;;;;9.90;6.85;;;;;;;;;;5074396;28;20218;-45
2022/08/06 08:37:26;;;;;;;8.25;7.38;;;;;;;;;;5074604;28;20252;-47
2022/08/06 08:39:59;;;;;;;15.98;7.47;;;;;;;;;;5074855;28;20211;-46
2022/08/06 08:42:35;;;;;;;9.85;7.28;;;;;;;;;;5074383;28;20245;-49
2022/08/06 08:45:04;;;;;;;14.77;7.63;;;;;;;;;;5074327;28;20680;-45
2022/08/06 08:47:44;;;;;;;8.68;6.72;;;;;;;;;;5078007;28;20218;-48
2022/08/06 08:50:23;;;;;;;10.70;8.20;;;;;;;;;;5078642;28;20496;-44
2022/08/06 08:52:58;;;;;;;9.65;7.50;;;;;;;;;;5078124;28;20223;-46
2022/08/06 08:55:25;;;;;;;8.50;6.88;;;;;;;;;;5078621;28;20214;-46
2022/08/06 08:58:13;;;;;;;8.55;6.53;;;;;;;;;;5078464;28;20323;-43
2022/08/06 09:01:00;;;;;;;8.52;7.03;;;;;;;;;;5078205;28;20212;-45
2022/08/06 09:03:27;;;;;;;12.52;6.80;;;;;;;;;;5076921;28;20231;-47
2022/08/06 09:05:55;;;;;;;6.85;5.90;;;;;;;;;;5078622;28;20529;-49
2022/08/06 09:08:27;;;;;;;9.13;5.65;;;;;;;;;;5078203;28;20199;-47
2022/08/06 09:11:14;;;;;;;11.10;8.13;;;;;;;;;;5078129;28;20199;-44
2022/08/06 09:14:06;;;;;;;16.85;8.98;;;;;;;;;;5077421;28;20242;-44
2022/08/06 09:16:35;;;;;;;17.45;11.50;;;;;;;;;;5078203;28;20222;-45
2022/08/06 09:19:05;;;;;;;16.27;10.73;;;;;;;;;;5078014;28;20204;-48
2022/08/06 09:21:37;;;;;;;33.60;9.88;;;;;;;;;;5078081;28;20272;-45
2022/08/06 09:24:09;;;;;;;14.75;11.15;;;;;;;;;;5077647;28;20211;-45
2022/08/06 09:26:36;;;;;;;13.45;11.05;;;;;;;;;;5076892;28;20215;-43
2022/08/06 09:29:21;;;;;;;17.05;11.35;;;;;;;;;;5077645;28;20634;-49
2022/08/06 09:31:58;;;;;;;13.98;11.43;;;;;;;;;;5077462;28;20290;-44
2022/08/06 09:34:37;;;;;;;18.02;11.55;;;;;;;;;;5077534;28;20237;-43
2022/08/06 09:37:07;;;;;;;20.13;11.90;;;;;;;;;;5077381;28;20320;-44
2022/08/06 09:39:40;;;;;;;13.90;11.82;;;;;;;;;;5076503;28;20199;-47
2022/08/06 09:42:40;;;;;;;18.00;11.57;;;;;;;;;;5077617;28;20203;-43
2022/08/06 09:45:12;;;;;;;13.63;11.75;;;;;;;;;;5077936;28;20207;-48
2022/08/06 09:47:44;;;;;;;17.98;12.13;;;;;;;;;;5077443;28;20203;-49
2022/08/06 09:50:43;;;;;;;16.42;11.80;;;;;;;;;;5077300;28;20203;-49
2022/08/06 09:53:15;;;;;;;24.40;12.65;;;;;;;;;;5077300;28;20221;-47
2022/08/06 09:55:47;;;;;;;16.98;11.98;;;;;;;;;;5077980;28;20198;-47
2022/08/06 09:58:27;;;;;;;14.10;12.02;;;;;;;;;;5075821;28;20609;-47
2022/08/06 10:00:55;;;;;;;16.23;12.98;;;;;;;;;;5076586;28;20272;-48
2022/08/06 10:03:23;;;;;;;18.60;12.95;;;;;;;;;;5076827;28;20235;-46
2022/08/06 10:06:14;;;;;;;20.27;13.88;;;;;;;;;;5076863;28;20211;-45
2022/08/06 10:08:43;;;;;;;18.63;14.23;;;;;;;;;;5077605;28;20517;-45
2022/08/06 10:11:37;;;;;;;17.20;14.02;;;;;;;;;;5076903;28;20276;-45
2022/08/06 10:14:31;;;;;;;19.02;13.75;;;;;;;;;;5076926;28;20519;-46
2022/08/06 10:17:16;;;;;;;22.85;14.00;;;;;;;;;;5076637;28;20199;-45
2022/08/06 10:19:45;;;;;;;16.98;14.13;;;;;;;;;;5077174;28;20199;-47
2022/08/06 10:22:19;;;;;;;15.45;12.85;;;;;;;;;;5076883;28;20183;-46
2022/08/06 10:24:51;;;;;;;18.75;14.18;;;;;;;;;;5077158;28;20199;-46
2022/08/06 10:27:21;;;;;;;26.90;15.02;;;;;;;;;;5076364;28;20184;-46
2022/08/06 10:29:53;;;;;;;18.83;14.68;;;;;;;;;;5075789;28;20203;-48
2022/08/06 10:32:37;;;;;;;17.35;13.85;;;;;;;;;;5076609;28;20207;-49
2022/08/06 10:35:05;;;;;;;22.20;14.00;;;;;;;;;;5076116;28;20231;-44
2022/08/06 10:37:43;;;;;;;16.95;13.40;;;;;;;;;;5076817;28;20583;-44
2022/08/06 10:40:24;;;;;;;16.50;13.95;;;;;;;;;;5076792;28;20223;-49
2022/08/06 10:42:58;;;;;;;29.60;14.02;;;;;;;;;;5075463;28;20214;-47
2022/08/06 10:45:26;;;;;;;16.60;13.93;;;;;;;;;;5076244;28;20203;-49
2022/08/06 10:48:15;;;;;;;15.75;14.02;;;;;;;;;;5076266;28;20257;-45
2022/08/06 10:51:08;;;;;;;15.07;13.20;;;;;;;;;;5075251;28;20192;-46
2022/08/06 10:53:39;;;;;;;15.90;14.15;;;;;;;;;;5075994;28;20226;-47
2022/08/06 10:56:28;;;;;;;16.15;13.48;;;;;;;;;;5076275;28;20203;-50
2022/08/06 10:59:05;;;;;;;23.05;14.63;;;;;;;;;;5075328;28;20203;-45
2022/08/06 11:01:36;;;;;;;27.25;13.25;;;;;;;;;;5076004;28;20203;-46
2022/08/06 11:04:13;;;;;;;22.02;11.73;;;;;;;;;;5074856;28;20573;-45
2022/08/06 11:07:11;;;;;;;16.88;9.77;;;;;;;;;;5075645;28;20237;-47
2022/08/06 11:10:11;;;;;;;15.27;9.23;;;;;;;;;;5074955;28;20277;-48
2022/08/06 11:13:16;;;;;;;10.38;8.23;;;;;;;;;;5075910;28;20195;-45
2022/08/06 11:15:43;;;;;;;11.55;8.05;;;;;;;;;;5075508;28;20192;-47
2022/08/06 11:18:12;;;;;;;11.70;8.18;;;;;;;;;;5075621;28;20210;-47
2022/08/06 11:20:49;;;;;;;19.95;6.65;;;;;;;;;;5075637;28;20203;-46
2022/08/06 11:23:16;;;;;;;10.45;5.32;;;;;;;;;;5075510;28;20210;-44
2022/08/06 11:26:03;;;;;;;29.40;6.13;;;;;;;;;;5075925;28;20211;-46
2022/08/06 11:28:30;;;;;;;7.45;4.70;;;;;;;;;;5074629;28;20256;-44
2022/08/06 11:31:00;;;;;;;8.18;4.68;;;;;;;;;;5075338;28;20268;-45
2022/08/06 11:33:35;;;;;;;6.15;4.40;;;;;;;;;;5075111;28;20223;-46
2022/08/06 11:36:09;;;;;;;6.30;4.70;;;;;;;;;;5075538;28;20211;-47
2022/08/06 11:38:42;;;;;;;6.20;4.70;;;;;;;;;;5075368;28;20199;-44
2022/08/06 11:41:18;;;;;;;5.90;4.20;;;;;;;;;;5075528;28;20321;-44
2022/08/06 11:44:06;;;;;;;11.35;4.22;;;;;;;;;;5075320;28;20207;-46
2022/08/06 11:46:38;;;;;;;5.80;3.47;;;;;;;;;;5075707;28;20537;-44
2022/08/06 11:49:34;;;;;;;5.70;3.42;;;;;;;;;;5074692;28;20203;-45
2022/08/06 11:52:37;;;;;;;4.63;3.20;;;;;;;;;;5075431;28;20215;-46
2022/08/06 11:55:09;;;;;;;7.15;3.58;;;;;;;;;;5074838;28;20607;-44
2022/08/06 11:58:19;;;;;;;9.50;3.28;;;;;;;;;;5074865;28;20199;-47
2022/08/06 12:01:13;;;;;;;4.97;2.80;;;;;;;;;;5072932;28;20199;-45
2022/08/06 12:04:00;;;;;;;4.72;3.47;;;;;;;;;;5039448;28;20246;-47
2022/08/06 12:06:27;;;;;;;5.10;3.10;;;;;;;;;;5020646;28;20281;-45
2022/08/06 12:09:12;;;;;;;6.93;2.10;;;;;;;;;;5036729;28;20233;-48
2022/08/06 12:11:54;;;;;;;2.60;2.40;;;;;;;;;;5053189;28;20200;-46
2022/08/06 12:14:39;;;;;;;10.30;2.78;;;;;;;;;;5036701;28;20250;-44
2022/08/06 12:17:15;;;;;;;6.40;2.35;;;;;;;;;;5052937;28;20204;-47
2022/08/06 12:19:52;;;;;;;3.58;2.13;;;;;;;;;;5053484;28;20246;-50
2022/08/06 12:22:28;;;;;;;2.05;1.85;;;;;;;;;;5052392;28;20207;-46
2022/08/06 12:24:58;;;;;;;2.15;1.95;;;;;;;;;;5052909;28;20269;-46
2022/08/06 12:27:39;;;;;;;4.78;2.20;;;;;;;;;;5052985;28;20204;-46
2022/08/06 12:30:18;;;;;;;2.33;1.70;;;;;;;;;;5053007;28;20211;-45
2022/08/06 12:33:06;;;;;;;5.10;2.00;;;;;;;;;;5012079;28;20215;-47
2022/08/06 12:35:57;;;;;;;4.97;1.60;;;;;;;;;;5053069;28;20255;-47
2022/08/06 12:38:27;;;;;;;2.28;1.75;;;;;;;;;;5052920;28;20203;-49
2022/08/06 12:41:03;;;;;;;3.85;1.90;;;;;;;;;;5067220;28;20207;-49
2022/08/06 12:43:41;;;;;;;2.10;1.80;;;;;;;;;;5074671;28;20211;-48
2022/08/06 12:46:24;;;;;;;3.47;1.70;;;;;;;;;;5074635;28;20195;-48
2022/08/06 12:48:57;;;;;;;2.83;1.75;;;;;;;;;;5074317;28;20531;-48
2022/08/06 12:51:27;;;;;;;3.53;1.50;;;;;;;;;;5074392;28;20618;-47
2022/08/06 12:54:04;;;;;;;4.55;1.80;;;;;;;;;;5074301;28;20219;-47
2022/08/06 12:56:33;;;;;;;3.05;1.60;;;;;;;;;;5074477;28;20202;-46
2022/08/06 12:59:06;;;;;;;3.42;1.60;;;;;;;;;;5075166;28;20237;-46
2022/08/06 13:01:50;;;;;;;3.25;1.85;;;;;;;;;;5073529;28;20207;-45
2022/08/06 13:04:37;;;;;;;4.82;1.30;;;;;;;;;;5074407;28;20596;-46
2022/08/06 13:07:05;;;;;;;4.28;1.42;;;;;;;;;;5073335;28;20634;-49
2022/08/06 13:09:40;;;;;;;1.60;1.50;;;;;;;;;;5074254;28;20210;-49
2022/08/06 13:12:27;;;;;;;1.90;1.63;;;;;;;;;;5074494;28;20266;-47
2022/08/06 13:15:15;;;;;;;6.03;2.58;;;;;;;;;;5073916;28;20557;-46
2022/08/06 13:18:07;;;;;;;1.70;1.55;;;;;;;;;;5073808;28;20560;-44
2022/08/06 13:20:54;;;;;;;2.05;1.15;;;;;;;;;;5074306;28;20230;-45
2022/08/06 13:23:34;;;;;;;3.15;1.83;;;;;;;;;;5074274;28;20624;-45
2022/08/06 13:26:16;;;;;;;2.30;1.30;;;;;;;;;;5074860;28;20625;-44
2022/08/06 13:29:17;;;;;;;1.40;1.20;;;;;;;;;;5074089;28;20208;-44
2022/08/06 13:32:09;;;;;;;5.28;1.92;;;;;;;;;;5074612;28;20506;-44
2022/08/06 13:34:56;;;;;;;3.33;1.20;;;;;;;;;;5077808;28;20230;-48
2022/08/06 13:37:43;;;;;;;1.88;1.23;;;;;;;;;;5078057;28;20195;-44
2022/08/06 13:40:38;;;;;;;4.05;1.30;;;;;;;;;;5077495;28;20618;-45
2022/08/06 13:43:13;;;;;;;5.63;1.20;;;;;;;;;;5077751;28;20199;-45
2022/08/06 13:46:05;;;;;;;1.33;1.10;;;;;;;;;;5077411;28;20348;-44
2022/08/06 13:48:34;;;;;;;1.33;1.08;;;;;;;;;;5077522;28;20207;-48
2022/08/06 13:51:04;;;;;;;2.88;1.63;;;;;;;;;;5077946;28;20203;-48
2022/08/06 13:53:39;;;;;;;2.85;1.02;;;;;;;;;;5077313;28;20199;-46
2022/08/06 13:56:15;;;;;;;4.53;1.20;;;;;;;;;;5077449;28;20221;-44
2022/08/06 13:58:54;;;;;;;5.47;1.23;;;;;;;;;;5077352;28;20183;-46
2022/08/06 14:01:22;;;;;;;2.85;1.30;;;;;;;;;;5077202;28;20218;-47
2022/08/06 14:03:49;;;;;;;2.03;1.25;;;;;;;;;;5076881;28;20231;-49
2022/08/06 14:06:16;;;;;;;1.83;1.38;;;;;;;;;;5077284;28;20239;-44
2022/08/06 14:08:44;;;;;;;1.40;1.27;;;;;;;;;;5076944;28;20218;-46
2022/08/06 14:11:14;;;;;;;3.25;1.20;;;;;;;;;;5077265;28;20204;-46
2022/08/06 14:13:47;;;;;;;3.30;1.13;;;;;;;;;;5076637;28;20219;-47
2022/08/06 14:16:14;;;;;;;3.05;1.30;;;;;;;;;;5076676;28;20676;-45
2022/08/06 14:18:42;;;;;;;1.30;1.20;;;;;;;;;;5076904;28;20210;-47
2022/08/06 14:21:27;;;;;;;3.47;1.42;;;;;;;;;;5076934;28;20226;-48
2022/08/06 14:23:54;;;;;;;2.22;1.40;;;;;;;;;;5076762;28;20269;-47
2022/08/06 14:26:27;;;;;;;2.25;1.10;;;;;;;;;;5077031;28;20273;-45
2022/08/06 14:28:54;;;;;;;2.10;1.15;;;;;;;;;;5076861;28;20516;-45
2022/08/06 14:31:43;;;;;;;1.95;1.20;;;;;;;;;;5076960;28;20195;-43
2022/08/06 14:34:24;;;;;;;2.05;1.10;;;;;;;;;;5076422;28;20222;-48
2022/08/06 14:37:03;;;;;;;1.77;1.40;;;;;;;;;;5076792;28;20191;-43
2022/08/06 14:39:40;;;;;;;3.83;1.40;;;;;;;;;;5076369;28;20625;-49
2022/08/06 14:45:14;;;;;;;2.30;1.33;;;;;;;;;;5075779;28;20274;-45
2022/08/06 14:47:48;;;;;;;3.42;1.40;;;;;;;;;;5076480;28;20200;-45
2022/08/06 14:50:26;;;;;;;1.67;0.90;;;;;;;;;;5076403;28;20200;-44
2022/08/06 14:53:07;;;;;;;2.25;1.20;;;;;;;;;;5076054;28;20203;-48
2022/08/06 14:55:42;;;;;;;1.35;0.80;;;;;;;;;;5075890;28;20654;-46
2022/08/06 14:58:29;;;;;;;0.95;0.82;;;;;;;;;;5075829;28;20195;-48
2022/08/06 15:00:57;;;;;;;1.48;0.90;;;;;;;;;;5076352;28;20210;-46
2022/08/06 15:03:23;;;;;;;3.97;1.10;;;;;;;;;;5075944;28;20567;-50
2022/08/06 15:06:00;;;;;;;2.15;0.88;;;;;;;;;;5076085;28;20191;-46
2022/08/06 15:08:33;;;;;;;3.40;1.10;;;;;;;;;;5075697;28;20680;-48
2022/08/06 15:11:02;;;;;;;2.38;1.20;;;;;;;;;;5075693;28;20199;-47
2022/08/06 15:13:40;;;;;;;2.20;1.27;;;;;;;;;;5075779;28;20207;-47
2022/08/06 15:16:07;;;;;;;2.20;0.90;;;;;;;;;;5075611;28;20227;-49
2022/08/06 15:18:48;;;;;;;1.77;0.90;;;;;;;;;;5075767;28;20199;-45
2022/08/06 15:21:35;;;;;;;1.02;0.85;;;;;;;;;;5075476;28;20237;-49
2022/08/06 15:24:17;;;;;;;1.52;1.10;;;;;;;;;;5075586;28;20203;-44
2022/08/06 15:26:45;;;;;;;2.67;1.00;;;;;;;;;;5075451;28;20214;-48
2022/08/06 15:29:15;;;;;;;5.95;1.05;;;;;;;;;;5075309;28;20703;-47
2022/08/06 15:31:45;;;;;;;1.23;1.02;;;;;;;;;;5075253;28;20634;-44
2022/08/06 15:34:14;;;;;;;3.03;1.27;;;;;;;;;;5075423;28;20199;-47
2022/08/06 15:36:46;;;;;;;4.20;1.40;;;;;;;;;;5075486;28;20187;-47
2022/08/06 15:39:33;;;;;;;4.72;1.60;;;;;;;;;;5075627;28;20290;-48